Latest Weather Observations for Barrow Island

IDW60801

Issued at 10:23 pm WST Friday 23 April 2021 (issued every 10 minutes, with the page automatically refreshed every 10 minutes)

About weather observations | Map of weather stations | Latest weather observations for WA | Other Formats
Station Details ID: 005094 Name: BARROW ISLAND AIRPORT Lat: -20.87 Lon: 115.41 Height: 6.4 m
Data from the previous 72 hours. | See also: Recent months at Barrow Island
Date/Time
WST
Temp
°C
App
Temp
°C
Dew
Point
°C
Rel
Hum
%
Delta-T
°C
Wind Press
QNH
hPa
Press
MSL
hPa
Rain since
9am
mm
Dir  Spd
km/h
Gust
km/h
Spd
kts
Gust
kts
23/10:00pm 26.0 - - - - S 7 9 4 5 1015.1 1015.1 0.0
23/09:30pm 26.6 - - - - SSW 11 15 6 8 1015.3 1015.3 0.0
23/09:00pm 24.2 - - - - SW 7 9 4 5 1015.2 1015.2 0.0
23/08:30pm 24.9 - - - - SW 7 7 4 4 1015.1 1015.1 0.0
23/08:00pm 24.9 - - - - W 7 9 4 5 1014.9 1014.9 0.0
23/07:30pm 24.9 - - - - W 11 13 6 7 1014.6 1014.6 0.0
23/07:00pm 25.5 - - - - N 9 9 5 5 1014.1 1014.1 0.0
23/06:30pm 27.0 - - - - NNE 9 11 5 6 1013.8 1013.8 0.0
23/06:00pm 28.0 - - - - NNE 9 11 5 6 1013.5 1013.5 0.0
23/05:30pm 28.6 - - - - NNE 11 13 6 7 1013.2 1013.2 0.0
23/05:00pm 29.4 - - - - N 13 15 7 8 1012.9 1012.9 0.0
23/04:30pm 29.8 - - - - NNE 15 15 8 8 1012.7 1012.7 0.0
23/04:00pm 30.1 - - - - NNE 17 20 9 11 1012.7 1012.7 0.0
23/03:30pm 30.3 - - - - NNE 19 24 10 13 1012.8 1012.8 0.0
23/03:00pm 30.6 - - - - NNE 19 22 10 12 1012.8 1012.8 0.0
23/02:30pm 30.1 - - - - NE 20 24 11 13 1013.2 1013.2 0.0
23/02:00pm 30.5 - - - - ENE 24 30 13 16 1013.5 1013.5 0.0
23/01:30pm 30.1 - - - - NE 20 26 11 14 1013.9 1013.9 0.0
23/01:00pm 29.7 - - - - ENE 22 26 12 14 1014.2 1014.2 0.0
23/12:30pm 29.4 - - - - NE 22 26 12 14 1014.7 1014.7 0.0
23/12:00pm 29.2 - - - - ENE 24 30 13 16 1015.2 1015.2 0.0
23/11:30am 29.9 - - - - E 17 20 9 11 1015.8 1015.8 0.0
23/11:00am 29.2 - - - - E 20 24 11 13 1016.1 1016.1 0.0
23/10:30am 29.6 - - - - E 20 26 11 14 1016.1 1016.1 0.0
23/10:00am 29.6 - - - - E 19 24 10 13 1016.0 1016.0 0.0
23/09:30am 29.2 - - - - E 17 20 9 11 1015.9 1015.9 0.0
23/09:00am 29.0 - - - - E 20 24 11 13 1015.8 1015.8 0.0
23/08:30am 28.8 - - - - E 20 26 11 14 1015.6 1015.6 0.0
23/08:00am 28.4 - - - - SE 20 24 11 13 1015.5 1015.5 0.0
23/07:30am 27.3 - - - - SE 22 26 12 14 1015.3 1015.3 0.0
23/07:00am 26.7 - - - - SSE 24 28 13 15 1015.0 1015.0 0.0
23/06:30am 26.3 - - - - SSE 24 28 13 15 1014.5 1014.5 0.0
23/06:00am 26.3 - - - - SSE 24 28 13 15 1014.1 1014.1 0.0
23/05:30am 26.1 - - - - SSE 22 26 12 14 1014.0 1014.0 0.0
23/05:00am 25.9 - - - - SSE 24 28 13 15 1013.8 1013.8 0.0
23/04:30am 25.8 - - - - SSE 26 30 14 16 1013.7 1013.7 0.0
23/04:00am 26.0 - - - - SSE 26 30 14 16 1013.8 1013.8 0.0
23/03:30am 26.4 - - - - SSE 22 28 12 15 1013.8 1013.8 0.0
23/03:00am 26.3 - - - - SSE 22 24 12 13 1013.7 1013.7 0.0
23/02:30am 26.4 - - - - SSE 20 24 11 13 1013.7 1013.7 0.0
23/02:00am 26.6 - - - - S 20 20 11 11 1013.9 1013.9 0.0
23/01:30am 26.8 - - - - S 19 20 10 11 1014.2 1014.2 0.0
23/01:00am 26.7 - - - - S 17 19 9 10 1014.3 1014.3 0.0
23/12:30am 26.0 - - - - SSW 13 17 7 9 1014.5 1014.5 0.0
23/12:00am 22.6 - - - - WNW 9 11 5 6 1014.8 1014.8 0.0
 
Date/Time
WST
Temp
°C
App
Temp
°C
Dew
Point
°C
Rel
Hum
%
Delta-T
°C
Wind Press
QNH
hPa
Press
MSL
hPa
Rain since
9am
mm
Dir  Spd
km/h
Gust
km/h
Spd
kts
Gust
kts
22/11:30pm 23.0 - - - - WNW 7 9 4 5 1014.8 1014.8 0.0
22/11:00pm 23.7 - - - - WNW 7 9 4 5 1014.9 1014.9 0.0
22/10:30pm 23.8 - - - - WNW 9 9 5 5 1014.9 1014.9 0.0
22/10:00pm 24.7 - - - - NW 7 7 4 4 1015.2 1015.2 0.0
22/09:30pm 24.0 - - - - NW 7 7 4 4 1015.3 1015.3 0.0
22/09:00pm 24.7 - - - - NW 6 7 3 4 1015.2 1015.2 0.0
22/08:30pm 23.9 - - - - NW 7 9 4 5 1014.9 1014.9 0.0
22/08:00pm 23.8 - - - - NNW 13 13 7 7 1014.6 1014.6 0.0
22/07:30pm 24.5 - - - - NNW 13 15 7 8 1014.2 1014.2 0.0
22/07:00pm 25.0 - - - - NNW 11 13 6 7 1014.0 1014.0 0.0
22/06:30pm 26.0 - - - - NNE 11 13 6 7 1013.7 1013.7 0.0
22/06:00pm 27.8 - - - - NE 15 19 8 10 1013.3 1013.3 0.0
22/05:30pm 29.4 - - - - NE 20 24 11 13 1013.1 1013.1 0.0
22/05:00pm 29.9 - - - - ENE 24 26 13 14 1013.0 1013.0 0.0
22/04:30pm 30.1 - - - - NE 26 30 14 16 1012.9 1012.9 0.0
22/04:00pm 30.3 - - - - NE 26 30 14 16 1012.8 1012.8 0.0
22/03:30pm 29.9 - - - - ENE 26 30 14 16 1013.0 1013.0 0.0
22/03:00pm 30.0 - - - - ENE 28 33 15 18 1013.2 1013.2 0.0
22/02:30pm 30.1 - - - - ENE 28 32 15 17 1013.4 1013.4 0.0
22/02:00pm 29.9 - - - - E 32 37 17 20 1013.6 1013.6 0.0
22/01:30pm 30.1 - - - - E 33 39 18 21 1014.0 1014.0 0.0
22/01:00pm 29.5 - - - - E 35 41 19 22 1014.2 1014.2 0.0
22/12:30pm 29.7 - - - - E 33 41 18 22 1014.6 1014.6 0.0
22/12:00pm 29.9 - - - - E 33 39 18 21 1014.9 1014.9 0.0
22/11:30am 29.7 - - - - E 32 35 17 19 1015.2 1015.2 0.0
22/11:00am 29.5 - - - - E 33 39 18 21 1015.5 1015.5 0.0
22/10:30am 29.3 - - - - ENE 32 35 17 19 1015.8 1015.8 0.0
22/10:00am 28.9 - - - - E 28 32 15 17 1015.8 1015.8 0.0
22/09:30am 28.6 - - - - E 26 33 14 18 1015.8 1015.8 0.0
22/09:00am 28.7 - - - - E 28 33 15 18 1015.7 1015.7 0.0
22/08:30am 28.3 - - - - SE 26 30 14 16 1015.4 1015.4 0.0
22/08:00am 27.2 - - - - SE 30 35 16 19 1015.1 1015.1 0.0
22/07:30am 26.5 - - - - SE 30 33 16 18 1015.2 1015.2 0.0
22/07:00am 26.0 - - - - SE 32 35 17 19 1014.8 1014.8 0.0
22/06:30am 25.8 - - - - SSE 32 35 17 19 1014.5 1014.5 0.0
22/06:00am 26.0 - - - - SSE 30 33 16 18 1014.2 1014.2 0.0
22/05:30am 26.2 - - - - S 30 35 16 19 1014.0 1014.0 0.0
22/05:00am 26.6 - - - - S 28 33 15 18 1013.8 1013.8 0.0
22/04:30am 26.3 - - - - S 28 30 15 16 1013.6 1013.6 0.0
22/04:00am 26.3 - - - - SSE 28 32 15 17 1013.7 1013.7 0.0
22/03:30am 26.8 - - - - S 30 33 16 18 1013.6 1013.6 0.0
22/03:00am 26.8 - - - - S 28 32 15 17 1013.7 1013.7 0.0
22/02:30am 26.9 - - - - S 24 28 13 15 1014.1 1014.1 0.0
22/02:00am 26.9 - - - - SSW 19 20 10 11 1014.2 1014.2 0.0
22/01:30am 26.9 - - - - SSW 20 24 11 13 1014.4 1014.4 0.0
22/01:00am 26.8 - - - - S 20 22 11 12 1014.6 1014.6 0.0
22/12:30am 26.8 - - - - SSW 20 24 11 13 1014.8 1014.8 0.0
22/12:00am 24.7 - - - - SW 13 17 7 9 1014.8 1014.8 0.0
 
Date/Time
WST
Temp
°C
App
Temp
°C
Dew
Point
°C
Rel
Hum
%
Delta-T
°C
Wind Press
QNH
hPa
Press
MSL
hPa
Rain since
9am
mm
Dir  Spd
km/h
Gust
km/h
Spd
kts
Gust
kts
21/11:30pm 24.6 - - - - WSW 11 13 6 7 1014.9 1014.9 0.0
21/11:00pm 24.8 - - - - WSW 11 13 6 7 1015.1 1015.1 0.0
21/10:30pm 25.1 - - - - SW 13 17 7 9 1015.2 1015.2 0.0
21/10:00pm 25.3 - - - - SW 15 17 8 9 1015.3 1015.3 0.0
21/09:30pm 25.3 - - - - WSW 15 17 8 9 1015.5 1015.5 0.0
21/09:00pm 24.9 - - - - WSW 11 13 6 7 1015.5 1015.5 0.0
21/08:30pm 24.5 - - - - W 13 13 7 7 1015.4 1015.4 0.0
21/08:00pm 25.1 - - - - W 15 17 8 9 1015.1 1015.1 0.0
21/07:30pm 25.0 - - - - WNW 15 15 8 8 1014.9 1014.9 0.0
21/07:00pm 25.1 - - - - WNW 13 13 7 7 1014.6 1014.6 0.0
21/06:30pm 26.3 - - - - W 9 11 5 6 1014.4 1014.4 0.0
21/06:00pm 27.8 - - - - W 11 15 6 8 1014.2 1014.2 0.0
21/05:30pm 28.8 - - - - NNW 9 11 5 6 1014.0 1014.0 0.0
21/05:00pm 28.5 - - - - N 11 13 6 7 1013.8 1013.8 0.0
21/04:30pm 28.5 - - - - NNE 13 15 7 8 1013.7 1013.7 0.0
21/04:00pm 28.7 - - - - NNE 15 17 8 9 1013.6 1013.6 0.0
21/03:30pm 28.8 - - - - NE 17 19 9 10 1013.5 1013.5 0.0
21/03:00pm 29.0 - - - - NE 15 19 8 10 1013.7 1013.7 0.0
21/02:30pm 29.1 - - - - NE 20 24 11 13 1013.8 1013.8 0.0
21/02:00pm 29.4 - - - - ENE 22 24 12 13 1014.0 1014.0 0.0
21/01:30pm 29.2 - - - - ENE 22 26 12 14 1014.1 1014.1 0.0
21/01:00pm 29.3 - - - - NE 24 28 13 15 1014.1 1014.1 0.0
21/12:30pm 28.9 - - - - NE 22 26 12 14 1014.4 1014.4 0.0
21/12:00pm 28.9 - - - - NE 20 24 11 13 1014.8 1014.8 0.0
21/11:30am 28.8 - - - - NE 20 24 11 13 1015.1 1015.1 0.0
21/11:00am 29.0 - - - - NE 17 20 9 11 1015.2 1015.2 0.0
21/10:30am 28.8 - - - - NE 20 24 11 13 1015.3 1015.3 0.0
21/10:00am 28.9 - - - - NE 20 22 11 12 1015.3 1015.3 0.0
21/09:30am 28.6 - - - - NE 19 22 10 12 1015.1 1015.1 0.0
21/09:00am 28.2 - - - - NE 19 22 10 12 1014.8 1014.8 0.0
21/08:30am 27.8 - - - - NNE 17 20 9 11 1014.6 1014.6 0.0
21/08:00am 26.6 - - - - NNE 13 15 7 8 1014.6 1014.6 0.0
21/07:30am 25.1 - - - - N 13 15 7 8 1014.2 1014.2 0.0
21/07:00am 23.3 - - - - N 13 15 7 8 1013.9 1013.9 0.0
21/06:30am 23.0 - - - - N 15 17 8 9 1013.6 1013.6 0.0
21/06:00am 22.9 - - - - N 15 17 8 9 1013.3 1013.3 0.0
21/05:30am 22.8 - - - - N 15 17 8 9 1013.0 1013.0 0.0
21/05:00am 22.3 - - - - N 13 15 7 8 1013.0 1013.0 0.0
21/04:30am 22.0 - - - - NNW 13 15 7 8 1012.8 1012.8 0.0
21/04:00am 22.9 - - - - N 13 17 7 9 1012.6 1012.6 0.0
21/03:30am 22.8 - - - - N 13 15 7 8 1012.6 1012.6 0.0
21/03:00am 23.4 - - - - N 15 17 8 9 1012.5 1012.5 0.0
21/02:30am 23.8 - - - - N 17 17 9 9 1012.6 1012.6 0.0
21/02:00am 23.4 - - - - N 13 15 7 8 1012.7 1012.7 0.0
21/01:30am 23.6 - - - - N 13 15 7 8 1012.9 1012.9 0.0
21/01:00am 23.3 - - - - NNW 11 13 6 7 1013.1 1013.1 0.0
21/12:30am 24.4 - - - - N 9 11 5 6 1013.4 1013.4 0.0
21/12:00am 24.3 - - - - N 11 15 6 8 1013.5 1013.5 0.0
 
Date/Time
WST
Temp
°C
App
Temp
°C
Dew
Point
°C
Rel
Hum
%
Delta-T
°C
Wind Press
QNH
hPa
Press
MSL
hPa
Rain since
9am
mm
Dir  Spd
km/h
Gust
km/h
Spd
kts
Gust
kts
20/11:30pm 23.4 - - - - NW 7 7 4 4 1013.3 1013.3 0.0
20/11:00pm 23.5 - - - - NW 7 9 4 5 1013.3 1013.3 0.0
20/10:30pm 23.6 - - - - WNW 11 11 6 6 1013.1 1013.1 0.0

Other formats

Comma delimited format used in spreadsheet applications
http://www.bom.gov.au/fwo/IDW60801/IDW60801.95304.axf

JavaScript Object Notation format (JSON) in row-major order
http://www.bom.gov.au/fwo/IDW60801/IDW60801.95304.json

Data quality

Most of these data are generated automatically and are frequently updated. Quality checks on data are not normally performed. It is possible for incorrect values to appear. Refer to information at About Latest Weather Observations and please check the disclaimer before using these data.